Time;durP1;ratioP1;P1;durP2;ratioP2;P2;SDS_P1;SDS_P2;PMS_P1;PMS_P2;Temp;Humidity;BMP_temperature;BMP_pressure;BME280_temperature;BME280_humidity;BME280_pressure;Samples;Min_cycle;Max_cycle;Signal;HPM_P1;HPM_P2
2023/10/25 00:00:38;;;;;;;9.20;3.40;;;;;;;18.66;64.02;97731.63;5094489;28;20637;-60
2023/10/25 00:03:03;;;;;;;11.70;3.47;;;;;;;18.66;63.60;97715.91;5094636;28;20248;-60
2023/10/25 00:05:35;;;;;;;10.95;3.45;;;;;;;18.34;63.90;97639.28;5094609;28;20180;-60
2023/10/25 00:08:00;;;;;;;10.40;3.60;;;;;;;18.27;63.97;97644.38;5094618;28;20176;-60
2023/10/25 00:10:26;;;;;;;10.00;4.38;;;;;;;18.37;65.06;97665.16;5094212;28;20210;-60
2023/10/25 00:12:51;;;;;;;9.18;4.22;;;;;;;18.83;66.52;97745.47;5094437;28;20198;-60
2023/10/25 00:15:16;;;;;;;9.80;4.13;;;;;;;18.55;65.87;97699.78;5094411;28;20228;-60
2023/10/25 00:17:42;;;;;;;11.82;3.72;;;;;;;18.75;66.53;97735.84;5094380;28;20199;-60
2023/10/25 00:20:07;;;;;;;8.38;3.47;;;;;;;18.76;67.30;97740.09;5031660;28;20298;-60
2023/10/25 00:22:33;;;;;;;13.50;4.50;;;;;;;18.10;68.13;97642.81;5031697;28;20217;-60
2023/10/25 00:24:58;;;;;;;10.38;4.35;;;;;;;18.25;68.28;97662.03;5031683;28;20236;-60
2023/10/25 00:27:24;;;;;;;10.88;3.72;;;;;;;17.90;69.01;97631.09;5031667;28;20335;-60
2023/10/25 00:29:49;;;;;;;11.52;3.70;;;;;;;18.09;68.88;97687.50;5031562;28;20228;-60
2023/10/25 00:32:14;;;;;;;8.93;3.75;;;;;;;17.48;69.92;97630.56;5031600;28;20690;-60
2023/10/25 00:34:41;;;;;;;13.52;3.92;;;;;;;18.10;69.62;97704.84;5031512;28;20185;-60
2023/10/25 00:37:06;;;;;;;10.27;4.93;;;;;;;17.99;70.94;97710.41;5031409;28;20182;-60
2023/10/25 00:39:31;;;;;;;12.13;4.07;;;;;;;17.61;68.58;97645.75;5031363;28;20721;-60
2023/10/25 00:41:57;;;;;;;6.38;3.63;;;;;;;17.86;70.03;97697.88;5031377;28;20231;-60
2023/10/25 00:44:22;;;;;;;7.50;3.70;;;;;;;17.82;70.59;97688.72;5031455;28;20182;-60
2023/10/25 00:46:48;;;;;;;9.60;3.95;;;;;;;17.25;70.92;97618.34;5031327;28;20713;-60
2023/10/25 00:49:14;;;;;;;9.73;3.67;;;;;;;17.42;70.84;97648.72;5031199;28;20177;-60
2023/10/25 00:51:40;;;;;;;12.65;3.65;;;;;;;17.37;70.25;97628.28;5076536;28;20223;-60
2023/10/25 00:54:05;;;;;;;7.22;3.00;;;;;;;17.52;70.18;97649.38;5093772;28;20247;-60
2023/10/25 00:56:33;;;;;;;6.47;3.60;;;;;;;17.48;70.36;97645.47;5093656;28;20187;-60
2023/10/25 00:58:59;;;;;;;8.63;3.45;;;;;;;17.57;69.68;97676.69;5093135;28;20183;-60
2023/10/25 01:01:27;;;;;;;10.80;3.95;;;;;;;17.62;70.00;97674.38;5093184;28;20714;-60
2023/10/25 01:03:53;;;;;;;10.10;3.70;;;;;;;17.17;70.12;97616.53;5093194;28;20563;-60
2023/10/25 01:06:18;;;;;;;11.77;4.07;;;;;;;17.49;70.72;97655.75;5093427;28;20521;-60
2023/10/25 01:08:45;;;;;;;14.70;3.85;;;;;;;17.30;71.33;97643.00;5093282;28;20167;-60
2023/10/25 01:11:11;;;;;;;12.45;4.30;;;;;;;17.29;71.06;97667.53;5092955;28;20558;-60
2023/10/25 01:13:37;;;;;;;8.18;3.70;;;;;;;17.54;71.65;97726.69;5093214;28;20180;-60
2023/10/25 01:16:02;;;;;;;12.95;3.72;;;;;;;17.21;71.59;97661.47;5093240;28;20191;-60
2023/10/25 01:18:28;;;;;;;11.23;3.85;;;;;;;16.68;72.73;97593.19;5092925;28;20242;-60
2023/10/25 01:20:53;;;;;;;12.13;3.65;;;;;;;17.47;72.74;97732.75;5093116;28;20270;-60
2023/10/25 01:23:19;;;;;;;6.90;3.60;;;;;;;17.06;72.79;97655.25;5093084;28;20164;-60
2023/10/25 01:25:44;;;;;;;8.90;3.95;;;;;;;17.18;74.46;97675.69;5093053;28;20232;-60
2023/10/25 01:28:11;;;;;;;12.48;4.65;;;;;;;17.49;72.42;97715.91;5092918;28;20182;-60
2023/10/25 01:30:37;;;;;;;8.68;3.60;;;;;;;17.23;72.33;97683.88;5092855;28;20568;-60
2023/10/25 01:33:02;;;;;;;13.30;4.05;;;;;;;17.36;72.78;97725.19;5092823;28;20172;-60
2023/10/25 01:35:28;;;;;;;9.27;3.95;;;;;;;16.83;73.04;97633.34;5092849;28;20187;-60
2023/10/25 01:37:54;;;;;;;6.82;3.28;;;;;;;16.86;73.67;97635.66;5092551;28;20520;-60
2023/10/25 01:40:19;;;;;;;12.60;3.67;;;;;;;16.84;73.96;97635.03;5092750;28;20176;-60
2023/10/25 01:42:45;;;;;;;9.65;4.07;;;;;;;17.03;73.49;97661.63;5092764;28;20186;-60
2023/10/25 01:45:11;;;;;;;8.70;3.33;;;;;;;16.86;73.52;97648.72;5092418;28;20172;-60
2023/10/25 01:47:38;;;;;;;7.55;4.13;;;;;;;17.20;73.83;97697.25;5092651;28;20172;-60
2023/10/25 01:50:04;;;;;;;10.00;3.30;;;;;;;16.97;73.64;97675.34;5092523;28;20210;-60
2023/10/25 01:52:30;;;;;;;13.38;4.45;;;;;;;16.56;73.87;97608.34;5092651;28;20230;-60
2023/10/25 01:54:55;;;;;;;7.18;3.75;;;;;;;17.07;73.52;97688.25;5092574;28;20546;-60
2023/10/25 01:57:21;;;;;;;8.60;3.22;;;;;;;16.80;73.38;97633.69;5092513;28;20178;-60
2023/10/25 01:59:46;;;;;;;8.10;3.35;;;;;;;16.86;72.76;97633.06;5092493;28;20180;-60
2023/10/25 02:02:12;;;;;;;9.07;2.97;;;;;;;16.49;72.49;97575.25;5092446;28;20175;-60
2023/10/25 02:04:38;;;;;;;11.85;3.30;;;;;;;16.43;72.53;97570.63;5092332;28;20524;-60
2023/10/25 02:07:03;;;;;;;10.50;3.70;;;;;;;16.54;72.88;97559.88;5092333;28;20226;-60
2023/10/25 02:09:29;;;;;;;10.25;3.85;;;;;;;16.55;73.71;97557.09;5092231;28;20332;-60
2023/10/25 02:11:55;;;;;;;14.15;3.35;;;;;;;16.56;74.37;97563.97;5091585;28;20186;-60
2023/10/25 02:14:20;;;;;;;5.95;3.33;;;;;;;16.28;73.33;97533.06;5092164;28;20523;-60
2023/10/25 02:16:46;;;;;;;8.18;3.42;;;;;;;16.69;73.84;97593.03;5091950;28;20562;-60
2023/10/25 02:19:11;;;;;;;8.88;3.92;;;;;;;16.36;73.37;97526.06;5092207;28;20706;-60
2023/10/25 02:21:37;;;;;;;6.10;3.10;;;;;;;16.89;73.30;97607.41;5092116;28;20180;-60
2023/10/25 02:24:03;;;;;;;11.63;3.65;;;;;;;16.46;72.83;97544.22;5092158;28;20180;-60
2023/10/25 02:26:29;;;;;;;11.60;3.63;;;;;;;16.58;71.67;97561.19;5092087;28;20219;-60
2023/10/25 02:28:55;;;;;;;9.30;3.80;;;;;;;16.74;70.48;97592.56;5092023;28;20267;-60
2023/10/25 02:31:20;;;;;;;8.73;2.80;;;;;;;16.98;69.20;97613.44;5091932;28;20187;-60
2023/10/25 02:33:46;;;;;;;11.40;3.47;;;;;;;16.98;69.32;97613.44;5092017;28;20171;-60
2023/10/25 02:36:11;;;;;;;6.45;3.05;;;;;;;16.57;68.09;97559.56;5091978;28;20179;-60
2023/10/25 02:38:37;;;;;;;6.82;3.28;;;;;;;16.56;68.33;97543.06;5091940;28;20673;-60
2023/10/25 02:41:02;;;;;;;10.23;3.28;;;;;;;16.88;66.50;97589.28;5091956;28;20697;-60
2023/10/25 02:43:28;;;;;;;6.25;3.40;;;;;;;17.28;66.63;97644.16;5091917;28;20184;-60
2023/10/25 02:46:03;;;;;;;3.30;2.88;;;;;;;16.89;66.93;97567.38;5091896;28;20184;-60
2023/10/25 02:48:29;;;;;;;11.98;3.15;;;;;;;17.37;67.22;97643.97;5091936;28;20249;-60
2023/10/25 02:50:54;;;;;;;8.55;2.85;;;;;;;17.38;66.59;97655.28;5091891;28;20252;-60
2023/10/25 02:53:20;;;;;;;7.10;3.10;;;;;;;16.81;66.68;97577.84;5091787;28;20696;-60
2023/10/25 02:55:47;;;;;;;5.18;2.55;;;;;;;17.15;65.96;97622.91;5091773;28;20175;-60
2023/10/25 02:58:13;;;;;;;6.57;2.90;;;;;;;17.42;66.04;97667.84;5091812;28;20249;-60
2023/10/25 03:00:39;;;;;;;14.52;2.85;;;;;;;16.87;66.40;97579.81;5091784;28;20657;-61
2023/10/25 03:03:04;;;;;;;6.47;2.70;;;;;;;17.43;67.14;97679.94;5091716;28;20183;-60
2023/10/25 03:05:30;;;;;;;9.15;3.03;;;;;;;16.87;68.66;97596.31;5091722;28;20180;-60
2023/10/25 03:07:56;;;;;;;9.02;2.72;;;;;;;17.34;68.82;97686.16;5091639;28;20238;-60
2023/10/25 03:10:21;;;;;;;7.45;4.03;;;;;;;16.82;68.76;97606.44;5091574;28;20661;-62
2023/10/25 03:12:46;;;;;;;16.08;5.85;;;;;;;17.26;68.70;97683.53;5091622;28;20179;-60
2023/10/25 03:15:12;;;;;;;10.60;3.85;;;;;;;16.87;69.54;97624.22;5091247;28;20266;-60
2023/10/25 03:17:37;;;;;;;10.23;4.50;;;;;;;17.22;68.33;97660.50;5091528;28;20180;-60
2023/10/25 03:20:04;;;;;;;9.85;4.32;;;;;;;16.85;68.92;97615.75;5091608;28;20196;-60
2023/10/25 03:22:29;;;;;;;9.48;3.15;;;;;;;17.08;68.79;97669.00;5093574;28;20230;-60
2023/10/25 03:24:56;;;;;;;7.30;3.45;;;;;;;16.99;69.41;97662.94;5095410;28;20266;-60
2023/10/25 03:27:21;;;;;;;8.77;3.15;;;;;;;16.47;70.07;97587.63;5095350;28;20557;-59
2023/10/25 03:29:46;;;;;;;8.35;2.92;;;;;;;16.59;70.17;97622.88;5095207;28;20199;-60
2023/10/25 03:32:12;;;;;;;6.15;3.08;;;;;;;16.17;71.11;97590.81;5095283;28;20172;-59
2023/10/25 03:34:37;;;;;;;10.60;3.28;;;;;;;16.17;70.65;97588.19;5095200;28;20639;-60
2023/10/25 03:37:03;;;;;;;10.90;3.50;;;;;;;16.58;70.53;97665.66;5095154;28;20275;-60
2023/10/25 03:39:28;;;;;;;8.98;3.67;;;;;;;15.84;71.25;97566.41;5094783;28;20171;-59
2023/10/25 03:41:54;;;;;;;9.77;3.03;;;;;;;16.42;71.15;97682.13;5095057;28;20180;-59
2023/10/25 03:44:19;;;;;;;9.45;3.22;;;;;;;16.24;71.23;97668.31;5094761;28;20202;-60
2023/10/25 03:46:45;;;;;;;7.00;2.95;;;;;;;16.35;70.97;97690.69;5094999;28;20710;-59
2023/10/25 03:49:12;;;;;;;9.93;3.35;;;;;;;16.02;71.32;97636.72;5094923;28;20180;-59
2023/10/25 03:51:37;;;;;;;9.30;3.38;;;;;;;16.43;72.05;97704.63;5094679;28;20196;-60
2023/10/25 03:54:02;;;;;;;5.70;2.67;;;;;;;16.20;70.94;97655.75;5094856;28;20168;-60
2023/10/25 03:56:28;;;;;;;7.63;2.78;;;;;;;16.48;71.20;97702.38;5094826;28;20180;-60
2023/10/25 03:58:53;;;;;;;8.07;2.92;;;;;;;16.41;73.18;97690.09;5095001;28;20180;-59
2023/10/25 04:01:19;;;;;;;7.05;2.80;;;;;;;16.22;71.58;97657.19;5094413;28;20204;-59
2023/10/25 04:03:44;;;;;;;7.43;2.80;;;;;;;15.92;72.17;97642.09;5094675;28;20179;-59
2023/10/25 04:06:09;;;;;;;5.93;2.90;;;;;;;16.08;72.45;97673.47;5094730;28;20168;-60
2023/10/25 04:08:35;;;;;;;11.95;3.33;;;;;;;15.99;73.59;97663.16;5094635;28;20173;-59
2023/10/25 04:11:01;;;;;;;10.73;3.95;;;;;;;16.02;74.14;97640.16;5094288;28;20198;-60
2023/10/25 04:13:27;;;;;;;8.15;3.40;;;;;;;15.89;72.53;97613.72;5094212;28;20180;-60
2023/10/25 04:16:04;;;;;;;6.10;3.38;;;;;;;16.02;71.96;97613.25;5094464;28;20168;-60
2023/10/25 04:18:31;;;;;;;7.68;3.33;;;;;;;16.24;72.10;97641.38;5094381;28;20265;-60
2023/10/25 04:20:58;;;;;;;8.80;3.78;;;;;;;15.73;72.06;97558.03;5094484;28;20172;-60
2023/10/25 04:23:25;;;;;;;8.20;3.10;;;;;;;15.91;71.92;97582.25;5094367;28;20203;-59
2023/10/25 04:25:50;;;;;;;5.38;3.05;;;;;;;15.69;72.12;97556.72;5094208;28;20190;-60
2023/10/25 04:28:17;;;;;;;7.45;3.33;;;;;;;16.16;72.42;97631.72;5094185;28;20642;-59
2023/10/25 04:30:42;;;;;;;8.48;3.00;;;;;;;16.08;72.91;97636.94;5051360;28;20715;-60
2023/10/25 04:33:08;;;;;;;9.25;2.83;;;;;;;15.77;73.16;97582.84;5050853;28;20190;-60
2023/10/25 04:35:34;;;;;;;7.63;2.58;;;;;;;15.83;73.01;97601.28;5051388;28;20213;-59
2023/10/25 04:37:59;;;;;;;8.05;2.60;;;;;;;15.68;73.62;97542.06;5051477;28;20301;-60
2023/10/25 04:40:25;;;;;;;6.03;2.67;;;;;;;15.93;73.79;97591.53;5051311;28;20577;-59
2023/10/25 04:42:50;;;;;;;7.28;2.72;;;;;;;15.29;74.06;97509.59;5051378;28;20182;-59
2023/10/25 04:45:16;;;;;;;5.70;2.92;;;;;;;15.49;73.75;97537.06;5051280;28;20197;-60
2023/10/25 04:47:42;;;;;;;11.48;3.00;;;;;;;15.71;73.95;97557.38;5051088;28;20239;-60
2023/10/25 04:50:08;;;;;;;6.53;2.88;;;;;;;15.44;74.11;97505.44;5050959;28;20213;-60
2023/10/25 04:52:33;;;;;;;7.72;2.50;;;;;;;15.75;74.44;97559.50;5050807;28;20332;-60
2023/10/25 04:54:59;;;;;;;9.55;3.17;;;;;;;15.79;74.20;97558.22;5050962;28;20653;-60
2023/10/25 04:57:24;;;;;;;4.65;2.58;;;;;;;15.48;74.09;97507.59;5050982;28;20283;-60
2023/10/25 04:59:50;;;;;;;3.75;2.75;;;;;;;15.90;73.51;97586.66;5051129;28;20188;-60
2023/10/25 05:02:16;;;;;;;7.30;3.00;;;;;;;15.57;72.50;97516.28;5082278;28;20184;-60
2023/10/25 05:04:41;;;;;;;4.22;2.40;;;;;;;15.97;71.40;97579.00;5093420;28;20179;-60
2023/10/25 05:07:08;;;;;;;3.88;2.28;;;;;;;15.50;71.59;97482.19;5093370;28;20168;-60
2023/10/25 05:09:34;;;;;;;8.35;2.53;;;;;;;16.11;71.46;97558.34;5093254;28;20191;-60
2023/10/25 05:12:06;;;;;;;5.47;2.63;;;;;;;15.70;71.76;97495.78;5093533;28;20649;-60
2023/10/25 05:14:33;;;;;;;8.52;2.83;;;;;;;15.72;69.99;97496.41;5093247;28;20165;-60
2023/10/25 05:17:00;;;;;;;3.40;2.05;;;;;;;16.42;69.15;97587.28;5093162;28;20211;-60
2023/10/25 05:19:25;;;;;;;6.93;3.13;;;;;;;16.18;68.62;97522.78;5093108;28;20175;-60
2023/10/25 05:21:51;;;;;;;6.53;2.85;;;;;;;16.47;69.75;97562.34;5093066;28;20192;-60
2023/10/25 05:24:17;;;;;;;7.13;2.70;;;;;;;16.26;69.58;97537.66;5093092;28;20633;-60
2023/10/25 05:26:44;;;;;;;8.65;2.65;;;;;;;16.30;68.94;97552.00;5092999;28;20649;-60
2023/10/25 05:29:10;;;;;;;8.32;2.70;;;;;;;16.63;68.02;97600.69;5092898;28;20187;-60
2023/10/25 05:31:41;;;;;;;7.03;2.50;;;;;;;16.68;67.74;97596.63;5092859;28;20263;-60
2023/10/25 05:34:07;;;;;;;7.55;2.88;;;;;;;16.32;68.01;97523.94;5092986;28;20607;-60
2023/10/25 05:36:33;;;;;;;5.03;2.30;;;;;;;16.64;68.52;97587.50;5092881;28;20641;-60
2023/10/25 05:39:00;;;;;;;7.18;2.80;;;;;;;16.25;68.81;97539.44;5092739;28;20202;-60
2023/10/25 05:41:29;;;;;;;6.60;2.22;;;;;;;16.19;68.55;97526.19;5092820;28;20184;-60
2023/10/25 05:44:06;;;;;;;8.73;2.80;;;;;;;16.39;69.23;97598.06;5092658;28;20219;-60
2023/10/25 05:46:32;;;;;;;8.65;2.60;;;;;;;16.39;69.30;97582.41;5091714;28;20622;-60
2023/10/25 05:48:57;;;;;;;8.18;2.50;;;;;;;16.17;69.88;97557.69;5092545;28;20172;-60
2023/10/25 05:51:23;;;;;;;5.93;2.63;;;;;;;15.77;70.35;97499.38;5092544;28;20200;-60
2023/10/25 05:53:49;;;;;;;7.03;2.58;;;;;;;16.28;70.35;97582.66;5092618;28;20645;-61
2023/10/25 05:56:16;;;;;;;6.50;2.40;;;;;;;16.11;69.63;97541.84;5092542;28;20176;-61
2023/10/25 05:58:41;;;;;;;6.15;2.15;;;;;;;15.83;69.78;97491.72;5000027;28;20189;-61
2023/10/25 06:01:09;;;;;;;5.88;2.72;;;;;;;15.96;69.77;97518.16;5049771;28;20193;-61
2023/10/25 06:03:35;;;;;;;7.28;2.33;;;;;;;15.92;69.41;97500.41;5049816;28;20267;-61
2023/10/25 06:06:01;;;;;;;8.82;2.40;;;;;;;15.88;69.34;97504.28;5049586;28;20181;-61
2023/10/25 06:08:27;;;;;;;9.95;2.90;;;;;;;16.36;69.63;97586.13;5049735;28;20224;-61
2023/10/25 06:10:54;;;;;;;7.00;3.13;;;;;;;16.36;69.52;97582.66;5049681;28;20240;-61
2023/10/25 06:13:19;;;;;;;5.53;2.78;;;;;;;16.34;69.48;97574.19;5049634;28;20181;-61
2023/10/25 06:15:45;;;;;;;8.05;2.17;;;;;;;16.22;68.98;97546.75;5049586;28;20185;-61
2023/10/25 06:18:11;;;;;;;8.45;2.80;;;;;;;16.63;68.17;97592.88;5049514;28;20213;-61
2023/10/25 06:20:37;;;;;;;4.95;2.30;;;;;;;16.07;68.48;97509.22;5049496;28;20243;-61
2023/10/25 06:23:03;;;;;;;5.90;2.50;;;;;;;16.27;68.00;97545.28;5049505;28;20205;-58
2023/10/25 06:25:31;;;;;;;4.78;2.70;;;;;;;16.69;68.78;97606.09;5049482;28;20193;-58
2023/10/25 06:27:59;;;;;;;9.30;2.67;;;;;;;16.32;68.44;97550.84;5049353;28;20677;-60
2023/10/25 06:30:26;;;;;;;3.22;2.03;;;;;;;16.83;68.35;97628.97;5081849;28;20211;-61
2023/10/25 06:32:51;;;;;;;12.95;2.88;;;;;;;16.86;69.53;97640.88;5089535;28;20557;-61
2023/10/25 06:35:17;;;;;;;15.90;4.50;;;;;;;16.81;72.55;97617.03;5089674;28;20180;-61
2023/10/25 06:37:42;;;;;;;14.82;5.35;;;;;;;16.87;74.85;97606.78;5091227;28;20190;-61
2023/10/25 06:40:08;;;;;;;15.80;5.53;;;;;;;17.02;75.74;97633.84;5091919;28;20555;-58
2023/10/25 06:42:34;;;;;;;26.15;7.35;;;;;;;16.84;76.48;97609.69;5091930;28;20168;-60
2023/10/25 06:45:01;;;;;;;24.15;7.28;;;;;;;16.89;77.02;97627.47;5091858;28;20171;-61
2023/10/25 06:47:28;;;;;;;20.63;6.68;;;;;;;16.72;77.70;97597.09;5049141;28;20189;-61
2023/10/25 06:49:53;;;;;;;24.10;6.55;;;;;;;17.13;77.97;97658.88;5049112;28;20219;-60
2023/10/25 06:52:19;;;;;;;24.88;8.25;;;;;;;17.21;78.17;97661.47;5048951;28;20210;-60
2023/10/25 06:54:45;;;;;;;24.75;7.18;;;;;;;17.07;78.22;97644.66;5049222;28;20181;-60
2023/10/25 06:57:11;;;;;;;21.67;6.82;;;;;;;16.85;78.76;97631.44;5050832;28;20270;-60
2023/10/25 06:59:37;;;;;;;21.48;7.40;;;;;;;16.76;79.62;97616.72;5033379;28;20718;-59
2023/10/25 07:02:26;;;;;;;21.20;7.85;;;;;;;17.02;80.28;97662.59;5033258;28;20194;-60
2023/10/25 07:05:00;;;;;;;25.92;8.57;;;;;;;16.61;80.27;97579.16;4974187;28;20192;-59
2023/10/25 07:07:30;;;;;;;20.25;8.23;;;;;;;16.35;82.29;97570.59;4974306;28;20639;-60
2023/10/25 07:09:55;;;;;;;22.17;9.40;;;;;;;16.63;82.79;97645.09;4974061;28;20212;-60
2023/10/25 07:12:21;;;;;;;21.27;8.52;;;;;;;16.32;83.80;97629.16;4974060;28;20760;-60
2023/10/25 07:14:46;;;;;;;26.15;9.00;;;;;;;16.24;84.50;97584.78;4974154;28;20179;-59
2023/10/25 07:17:11;;;;;;;24.35;8.88;;;;;;;16.22;84.34;97585.91;4974115;28;20191;-59
2023/10/25 07:19:38;;;;;;;28.48;8.95;;;;;;;15.89;84.39;97545.06;5013095;28;20175;-60
2023/10/25 07:22:03;;;;;;;26.58;8.80;;;;;;;16.33;85.43;97641.25;5013021;28;20189;-59
2023/10/25 07:24:29;;;;;;;27.65;9.73;;;;;;;16.05;85.66;97595.50;5013074;28;20214;-60
2023/10/25 07:26:54;;;;;;;29.88;9.02;;;;;;;16.43;84.99;97617.63;5013019;28;20178;-59
2023/10/25 07:29:20;;;;;;;26.55;7.93;;;;;;;16.33;84.61;97583.81;5013066;28;20229;-59
2023/10/25 07:31:45;;;;;;;26.60;8.45;;;;;;;16.24;82.94;97556.06;5012891;28;20210;-60
2023/10/25 07:34:10;;;;;;;25.30;7.45;;;;;;;16.78;82.77;97630.41;5012808;28;20277;-59
2023/10/25 07:36:36;;;;;;;24.98;8.07;;;;;;;16.69;82.63;97600.06;4986849;28;20228;-59
2023/10/25 07:39:01;;;;;;;20.50;8.30;;;;;;;16.75;81.34;97578.50;4973968;28;20231;-59
2023/10/25 07:41:26;;;;;;;24.02;8.23;;;;;;;16.84;80.05;97580.16;4985842;28;20190;-59
2023/10/25 07:43:52;;;;;;;28.48;8.50;;;;;;;17.35;79.32;97660.81;5012960;28;20217;-59
2023/10/25 07:46:17;;;;;;;25.25;8.50;;;;;;;17.46;78.65;97661.31;5012650;28;20644;-59
2023/10/25 07:48:42;;;;;;;28.13;9.02;;;;;;;17.42;79.16;97667.03;5012900;28;20248;-60
2023/10/25 07:51:08;;;;;;;31.90;8.90;;;;;;;16.83;81.44;97591.56;5012487;28;20315;-59
2023/10/25 07:53:33;;;;;;;25.90;8.50;;;;;;;17.11;80.48;97624.22;5012333;28;20233;-59
2023/10/25 07:56:05;;;;;;;28.02;8.32;;;;;;;17.43;79.67;97642.53;5012462;28;20311;-60
2023/10/25 07:58:31;;;;;;;33.63;9.23;;;;;;;17.30;79.86;97627.31;5012397;28;20210;-59
2023/10/25 08:00:56;;;;;;;27.38;7.78;;;;;;;17.40;80.45;97645.47;5042427;28;20687;-60
2023/10/25 08:03:22;;;;;;;32.45;8.18;;;;;;;17.03;80.33;97575.38;5052001;28;20215;-59
2023/10/25 08:05:47;;;;;;;25.70;8.80;;;;;;;17.63;78.97;97643.78;5051976;28;20173;-60
2023/10/25 08:08:12;;;;;;;25.75;6.35;;;;;;;17.52;77.88;97605.72;5050761;28;20697;-60
2023/10/25 08:10:38;;;;;;;19.10;7.00;;;;;;;17.42;76.40;97572.88;5051757;28;20311;-59
2023/10/25 08:13:03;;;;;;;22.65;6.68;;;;;;;17.98;75.44;97648.59;5056433;28;20268;-59
2023/10/25 08:15:29;;;;;;;11.52;5.40;;;;;;;17.61;73.92;97564.66;5094383;28;20173;-60
2023/10/25 08:17:54;;;;;;;19.30;5.60;;;;;;;17.68;73.21;97576.91;5051617;28;20192;-60
2023/10/25 08:20:20;;;;;;;17.92;5.55;;;;;;;18.16;72.37;97651.78;5051633;28;20583;-59
2023/10/25 08:22:45;;;;;;;12.63;5.07;;;;;;;17.99;72.66;97616.19;5051550;28;20208;-60
2023/10/25 08:25:10;;;;;;;17.25;5.53;;;;;;;18.10;73.40;97626.28;5051589;28;20173;-60
2023/10/25 08:27:36;;;;;;;14.68;6.10;;;;;;;17.92;74.46;97581.22;5051494;28;20204;-60
2023/10/25 08:30:03;;;;;;;18.10;6.78;;;;;;;18.17;74.11;97607.09;5051355;28;20258;-59
2023/10/25 08:32:28;;;;;;;15.82;7.47;;;;;;;18.47;72.64;97629.09;5051417;28;20224;-60
2023/10/25 08:34:54;;;;;;;16.65;6.80;;;;;;;18.64;72.13;97649.75;5051402;28;20759;-60
2023/10/25 08:37:19;;;;;;;21.17;7.35;;;;;;;18.69;72.05;97652.69;5051353;28;20185;-59
2023/10/25 08:39:44;;;;;;;21.85;6.50;;;;;;;18.65;72.46;97647.97;5051152;28;20181;-60
2023/10/25 08:42:14;;;;;;;26.40;8.60;;;;;;;18.48;72.62;97609.75;5051253;28;20308;-60
2023/10/25 08:44:42;;;;;;;29.73;9.05;;;;;;;18.48;72.13;97594.84;5051132;28;20189;-60
2023/10/25 08:47:11;;;;;;;24.35;7.88;;;;;;;18.86;71.99;97632.41;5051204;28;20188;-60
2023/10/25 08:49:37;;;;;;;24.33;9.13;;;;;;;18.40;72.33;97555.59;5083311;28;20180;-60
2023/10/25 08:52:03;;;;;;;32.80;7.97;;;;;;;18.57;72.62;97572.00;5091141;28;20215;-60
2023/10/25 08:54:29;;;;;;;19.95;7.70;;;;;;;18.71;72.23;97594.84;5091249;28;20672;-60
2023/10/25 08:56:55;;;;;;;16.50;8.40;;;;;;;18.99;73.41;97645.72;5091188;28;20183;-60
2023/10/25 08:59:20;;;;;;;20.42;8.77;;;;;;;18.83;72.39;97594.25;5070734;28;20192;-59
2023/10/25 09:01:48;;;;;;;23.48;8.90;;;;;;;18.72;71.86;97573.69;5070863;28;20194;-60
2023/10/25 09:04:13;;;;;;;34.72;9.60;;;;;;;18.88;71.13;97588.50;5070673;28;20234;-60
2023/10/25 09:06:39;;;;;;;35.35;10.60;;;;;;;19.21;70.96;97639.69;5070720;28;20180;-61
2023/10/25 09:09:07;;;;;;;31.90;9.40;;;;;;;19.21;70.11;97643.13;5070723;28;20192;-61
2023/10/25 09:11:44;;;;;;;33.45;9.00;;;;;;;18.90;70.52;97589.97;5070520;28;20216;-61
2023/10/25 09:14:13;;;;;;;37.35;9.35;;;;;;;19.09;70.29;97615.69;5070602;28;20184;-61
2023/10/25 09:16:41;;;;;;;37.25;9.65;;;;;;;19.28;70.46;97651.94;5064860;28;20193;-61
2023/10/25 09:19:07;;;;;;;25.80;10.07;;;;;;;19.30;70.13;97654.38;5050248;28;20250;-61
2023/10/25 09:21:32;;;;;;;30.55;11.23;;;;;;;18.98;70.23;97586.44;5050492;28;20253;-61
2023/10/25 09:24:08;;;;;;;48.88;16.17;;;;;;;18.99;70.31;97588.06;5050493;28;20280;-61
2023/10/25 09:26:39;;;;;;;43.05;16.05;;;;;;;19.31;70.48;97645.50;5050471;28;20172;-61
2023/10/25 09:29:05;;;;;;;43.65;14.65;;;;;;;19.14;70.18;97615.13;5050411;28;20173;-61
2023/10/25 09:31:31;;;;;;;36.05;12.55;;;;;;;19.48;69.18;97662.75;5092083;28;20208;-61
2023/10/25 09:33:58;;;;;;;36.75;10.55;;;;;;;19.09;69.52;97591.25;5092867;28;20172;-60
2023/10/25 09:36:25;;;;;;;34.55;9.48;;;;;;;19.07;69.11;97586.19;5092472;28;20179;-61
2023/10/25 09:38:51;;;;;;;29.13;8.38;;;;;;;19.23;69.82;97612.28;5092703;28;20207;-61
2023/10/25 09:41:17;;;;;;;28.70;8.77;;;;;;;19.49;69.95;97649.44;5092718;28;20187;-61
2023/10/25 09:43:52;;;;;;;24.48;7.95;;;;;;;19.39;71.00;97641.00;5092678;28;20172;-61
2023/10/25 09:46:20;;;;;;;27.02;8.00;;;;;;;19.10;69.90;97574.50;5092636;28;20182;-61
2023/10/25 09:49:03;;;;;;;19.88;7.13;;;;;;;19.30;69.40;97596.66;5092649;28;20211;-61
2023/10/25 09:52:05;;;;;;;18.13;6.75;;;;;;;19.48;68.90;97634.66;5092148;28;20239;-61
2023/10/25 09:54:41;;;;;;;18.35;6.47;;;;;;;18.99;70.01;97553.97;5069760;28;20708;-61
2023/10/25 09:57:09;;;;;;;30.27;7.35;;;;;;;19.42;69.69;97605.72;5069888;28;20179;-61
2023/10/25 09:59:37;;;;;;;17.40;7.22;;;;;;;19.16;70.81;97576.44;5069654;28;20246;-61
2023/10/25 10:02:06;;;;;;;29.75;8.27;;;;;;;19.30;70.64;97599.28;5069947;28;20185;-60
2023/10/25 10:04:49;;;;;;;43.60;12.93;;;;;;;19.10;72.28;97600.75;5069599;28;20185;-61
2023/10/25 10:07:28;;;;;;;27.67;11.35;;;;;;;18.73;72.69;97532.59;5069777;28;20184;-60
2023/10/25 10:10:19;;;;;;;22.38;9.57;;;;;;;18.93;73.16;97541.56;5069508;28;20784;-61
2023/10/25 10:12:45;;;;;;;24.92;8.75;;;;;;;19.38;72.38;97604.44;5069613;28;20165;-61
2023/10/25 10:15:12;;;;;;;23.98;8.43;;;;;;;19.49;72.66;97606.63;5069585;28;20188;-60
2023/10/25 10:17:42;;;;;;;30.85;8.93;;;;;;;19.70;71.64;97610.16;5069767;28;20655;-61
2023/10/25 10:20:20;;;;;;;22.88;8.77;;;;;;;19.77;69.99;97592.69;5069535;28;20536;-61
2023/10/25 10:23:16;;;;;;;24.55;8.55;;;;;;;20.01;69.48;97607.34;5069550;28;20231;-61
2023/10/25 10:25:50;;;;;;;25.85;7.93;;;;;;;20.00;68.52;97590.75;5081737;28;20756;-61
2023/10/25 10:28:36;;;;;;;26.00;7.43;;;;;;;20.09;66.97;97575.75;5091839;28;20182;-59
2023/10/25 10:31:02;;;;;;;19.75;6.93;;;;;;;20.05;65.50;97551.63;5091579;28;20195;-61
2023/10/25 10:33:27;;;;;;;32.38;9.23;;;;;;;20.35;64.86;97586.56;5091806;28;20586;-61
2023/10/25 10:36:00;;;;;;;28.35;12.02;;;;;;;20.28;64.30;97562.84;5091602;28;20176;-60
2023/10/25 10:38:25;;;;;;;27.83;9.93;;;;;;;20.19;63.96;97540.34;5049180;28;20534;-61
2023/10/25 10:40:51;;;;;;;20.75;8.43;;;;;;;20.54;63.71;97589.41;5049205;28;20189;-61
2023/10/25 10:43:17;;;;;;;22.65;8.25;;;;;;;20.49;63.68;97560.25;5049197;28;20189;-61
2023/10/25 10:45:46;;;;;;;18.48;8.35;;;;;;;20.49;62.65;97570.75;5049206;28;20560;-59
2023/10/25 10:48:13;;;;;;;25.30;8.40;;;;;;;20.60;62.89;97593.09;5049182;28;20228;-60
2023/10/25 10:50:42;;;;;;;30.85;9.18;;;;;;;20.01;62.87;97512.81;5049048;28;20685;-61
2023/10/25 10:53:07;;;;;;;27.73;6.95;;;;;;;20.03;62.63;97537.06;5049005;28;20209;-61
2023/10/25 10:55:33;;;;;;;21.00;6.72;;;;;;;20.19;63.16;97569.22;5029117;28;20188;-61
2023/10/25 10:57:58;;;;;;;21.20;6.93;;;;;;;19.84;63.62;97496.47;5029166;28;20276;-59
2023/10/25 11:00:25;;;;;;;22.88;6.97;;;;;;;20.19;63.31;97531.63;5009286;28;20194;-59
2023/10/25 11:02:51;;;;;;;22.90;6.88;;;;;;;20.08;63.34;97477.78;5008997;28;20312;-61
2023/10/25 11:05:20;;;;;;;15.88;6.40;;;;;;;20.64;62.18;97536.53;5009199;28;20635;-61
2023/10/25 11:07:48;;;;;;;20.67;7.05;;;;;;;20.82;61.81;97542.97;5009282;28;20684;-61
2023/10/25 11:10:14;;;;;;;19.95;6.93;;;;;;;20.67;61.82;97500.16;5042869;28;20201;-61
2023/10/25 11:12:40;;;;;;;19.77;6.90;;;;;;;20.60;61.23;97461.66;5049014;28;20197;-61
2023/10/25 11:15:06;;;;;;;19.58;5.50;;;;;;;20.98;60.79;97510.34;5048964;28;20191;-61
2023/10/25 11:17:34;;;;;;;16.70;6.25;;;;;;;21.16;60.57;97532.50;5048949;28;20250;-61
2023/10/25 11:19:59;;;;;;;21.35;5.95;;;;;;;20.66;60.37;97481.94;5049104;28;20193;-61
2023/10/25 11:22:25;;;;;;;18.35;6.30;;;;;;;20.54;61.06;97457.16;5048902;28;20173;-61
2023/10/25 11:24:52;;;;;;;16.38;6.00;;;;;;;20.88;61.34;97496.69;5048780;28;20577;-61
2023/10/25 11:27:18;;;;;;;19.90;5.97;;;;;;;20.88;60.06;97487.00;5048841;28;20221;-60